Time;durP1;ratioP1;P1;durP2;ratioP2;P2;SDS_P1;SDS_P2;PMS_P1;PMS_P2;Temp;Humidity;BMP_temperature;BMP_pressure;BME280_temperature;BME280_humidity;BME280_pressure;Samples;Min_cycle;Max_cycle;Signal;HPM_P1;HPM_P2
2022/01/25 00:15:39;;;;;;;6.32;5.13;;;;;;;;;;5066970;28;20486;-65
2022/01/25 00:26:20;;;;;;;7.80;4.88;;;;;;;;;;5066452;28;20110;-65
2022/01/25 00:28:52;;;;;;;7.35;4.90;;;;;;;;;;5067726;28;20128;-63
2022/01/25 00:31:18;;;;;;;9.15;4.97;;;;;;;;;;5061679;28;20102;-64
2022/01/25 00:33:53;;;;;;;8.90;5.80;;;;;;;;;;5029178;28;20251;-64
2022/01/25 00:36:21;;;;;;;6.03;4.80;;;;;;;;;;5046053;28;20184;-63
2022/01/25 00:38:47;;;;;;;7.63;4.60;;;;;;;;;;5064382;28;20126;-63
2022/01/25 00:41:14;;;;;;;7.47;5.10;;;;;;;;;;5067592;28;20113;-64
2022/01/25 00:43:40;;;;;;;7.55;5.28;;;;;;;;;;5067218;28;20400;-63
2022/01/25 00:46:09;;;;;;;7.25;5.40;;;;;;;;;;5063510;28;20501;-64
2022/01/25 00:53:58;;;;;;;7.15;5.25;;;;;;;;;;5046101;28;20045;-64
2022/01/25 00:56:26;;;;;;;6.65;4.63;;;;;;;;;;5047023;28;20119;-64
2022/01/25 00:58:52;;;;;;;8.10;4.93;;;;;;;;;;5047244;28;20045;-64
2022/01/25 01:01:19;;;;;;;6.65;4.80;;;;;;;;;;5047577;28;20489;-64
2022/01/25 01:03:45;;;;;;;8.88;4.65;;;;;;;;;;5050742;28;20048;-64
2022/01/25 01:06:13;;;;;;;7.50;4.90;;;;;;;;;;5047701;28;20037;-64
2022/01/25 01:08:40;;;;;;;7.72;5.32;;;;;;;;;;5046216;28;20487;-64
2022/01/25 01:11:10;;;;;;;5.85;4.97;;;;;;;;;;5064998;28;20451;-64
2022/01/25 01:29:34;;;;;;;8.27;5.57;;;;;;;;;;5065506;28;20422;-65
2022/01/25 01:45:47;;;;;;;6.32;4.93;;;;;;;;;;5061950;28;20045;-65
2022/01/25 01:47:48;;;;;;;6.50;4.68;;;;;;;;;;5049324;28;20059;-65
2022/01/25 01:50:26;;;;;;;7.45;4.63;;;;;;;;;;5054889;28;20525;-65
2022/01/25 01:52:53;;;;;;;8.45;5.03;;;;;;;;;;5068853;28;20072;-65
2022/01/25 01:55:19;;;;;;;7.10;5.10;;;;;;;;;;5070236;28;20045;-65
2022/01/25 01:57:48;;;;;;;6.72;4.50;;;;;;;;;;5070048;28;20045;-65
2022/01/25 02:00:14;;;;;;;;;;;;;;;;;;5070590;28;20127;-64
2022/01/25 02:02:40;;;;;;;6.65;4.55;;;;;;;;;;5067085;28;20015;-64
2022/01/25 02:05:07;;;;;;;6.57;4.70;;;;;;;;;;5049613;28;20044;-65
2022/01/25 02:07:33;;;;;;;7.35;4.50;;;;;;;;;;5049933;28;20047;-65
2022/01/25 02:09:59;;;;;;;6.72;4.55;;;;;;;;;;5049774;28;20162;-63
2022/01/25 02:12:25;;;;;;;7.40;5.00;;;;;;;;;;5049631;28;20522;-66
2022/01/25 02:14:51;;;;;;;14.00;5.20;;;;;;;;;;5049802;28;20422;-65
2022/01/25 02:17:41;;;;;;;8.23;5.00;;;;;;;;;;5062643;28;20057;-63
2022/01/25 02:22:51;;;;;;;8.15;4.43;;;;;;;;;;5069563;28;20053;-64
2022/01/25 02:25:17;;;;;;;7.60;4.95;;;;;;;;;;5069348;28;20052;-63
2022/01/25 02:27:43;;;;;;;7.20;5.38;;;;;;;;;;5067388;28;20056;-66
2022/01/25 02:30:10;;;;;;;6.53;5.10;;;;;;;;;;5068910;28;20056;-66
2022/01/25 02:32:36;;;;;;;10.73;5.28;;;;;;;;;;5069755;28;20067;-64
2022/01/25 02:35:02;;;;;;;9.85;5.45;;;;;;;;;;5068869;28;20044;-64
2022/01/25 02:37:29;;;;;;;8.93;5.32;;;;;;;;;;5069325;28;20197;-63
2022/01/25 02:39:55;;;;;;;9.32;5.22;;;;;;;;;;5069583;28;20076;-63
2022/01/25 02:42:22;;;;;;;9.02;5.00;;;;;;;;;;5067804;28;20049;-63
2022/01/25 02:44:48;;;;;;;8.10;5.05;;;;;;;;;;5069261;28;20045;-63
2022/01/25 02:50:00;;;;;;;6.63;4.72;;;;;;;;;;5049974;28;20075;-63
2022/01/25 02:52:26;;;;;;;6.88;5.13;;;;;;;;;;5050114;28;20529;-64
2022/01/25 02:54:53;;;;;;;7.28;4.82;;;;;;;;;;5049967;28;20037;-64
2022/01/25 02:57:19;;;;;;;9.02;5.60;;;;;;;;;;5052047;28;20370;-63
2022/01/25 02:59:45;;;;;;;8.45;4.68;;;;;;;;;;5067725;28;20493;-63
2022/01/25 03:02:12;;;;;;;8.43;5.32;;;;;;;;;;5068722;28;20049;-64
2022/01/25 03:04:38;;;;;;;6.90;5.25;;;;;;;;;;5069215;28;20052;-64
2022/01/25 03:07:04;;;;;;;7.05;4.88;;;;;;;;;;5069196;28;20088;-63
2022/01/25 03:09:30;;;;;;;5.93;4.57;;;;;;;;;;5068949;28;20110;-64
2022/01/25 03:11:58;;;;;;;7.63;4.50;;;;;;;;;;5069431;28;20056;-62
2022/01/25 03:14:27;;;;;;;7.05;4.75;;;;;;;;;;5068994;28;20137;-63
2022/01/25 03:22:04;;;;;;;6.13;4.70;;;;;;;;;;5049013;28;20049;-64
2022/01/25 03:24:30;;;;;;;8.50;4.90;;;;;;;;;;5049108;28;20080;-64
2022/01/25 03:26:56;;;;;;;6.60;4.90;;;;;;;;;;5049423;28;20059;-64
2022/01/25 03:29:22;;;;;;;8.38;4.93;;;;;;;;;;5049508;28;20395;-64
2022/01/25 03:31:48;;;;;;;7.63;4.68;;;;;;;;;;5048256;28;20438;-64
2022/01/25 03:34:15;;;;;;;6.63;4.90;;;;;;;;;;5049516;28;20079;-64
2022/01/25 03:36:42;;;;;;;8.18;4.72;;;;;;;;;;5049180;28;20392;-66
2022/01/25 03:39:08;;;;;;;8.32;5.20;;;;;;;;;;5047829;28;20048;-64
2022/01/25 03:41:35;;;;;;;16.45;5.28;;;;;;;;;;5057841;28;20041;-64
2022/01/25 03:44:01;;;;;;;6.35;4.53;;;;;;;;;;5049058;28;20047;-63
2022/01/25 03:51:45;;;;;;;7.90;5.20;;;;;;;;;;5048345;28;20095;-64
2022/01/25 03:54:11;;;;;;;9.68;5.05;;;;;;;;;;5048872;28;20430;-64
2022/01/25 03:56:38;;;;;;;7.10;5.40;;;;;;;;;;5054746;28;20055;-64
2022/01/25 03:59:05;;;;;;;8.15;4.75;;;;;;;;;;5068254;28;20060;-64
2022/01/25 04:01:32;;;;;;;10.60;4.80;;;;;;;;;;5068497;28;20044;-64
2022/01/25 04:04:05;;;;;;;10.00;5.25;;;;;;;;;;5066900;28;20084;-64
2022/01/25 04:06:33;;;;;;;6.30;4.65;;;;;;;;;;5068935;28;20044;-64
2022/01/25 04:09:00;;;;;;;8.05;4.82;;;;;;;;;;5068623;28;20048;-64
2022/01/25 04:11:26;;;;;;;6.55;5.07;;;;;;;;;;5066587;28;20590;-64
2022/01/25 04:13:53;;;;;;;7.22;5.03;;;;;;;;;;5068778;28;20078;-64
2022/01/25 04:16:25;;;;;;;7.47;4.95;;;;;;;;;;5068521;28;20132;-64
2022/01/25 04:26:46;;;;;;;6.60;5.00;;;;;;;;;;5048522;28;20483;-63
2022/01/25 04:29:12;;;;;;;6.22;4.95;;;;;;;;;;5048389;28;20548;-63
2022/01/25 04:31:39;;;;;;;6.43;4.72;;;;;;;;;;5048074;28;20399;-64
2022/01/25 04:48:51;;;;;;;6.68;4.82;;;;;;;;;;5047883;28;20048;-63
2022/01/25 04:50:56;;;;;;;6.18;4.85;;;;;;;;;;5047271;28;20060;-64
2022/01/25 04:53:23;;;;;;;6.30;4.95;;;;;;;;;;5049614;28;20048;-63
2022/01/25 04:56:07;;;;;;;7.00;4.72;;;;;;;;;;5066917;28;20044;-63
2022/01/25 04:58:45;;;;;;;6.43;4.88;;;;;;;;;;5067390;28;20083;-63
2022/01/25 05:01:11;;;;;;;6.25;4.55;;;;;;;;;;5067820;28;20071;-63
2022/01/25 05:03:57;;;;;;;8.25;5.32;;;;;;;;;;5067512;28;20098;-63
2022/01/25 05:06:24;;;;;;;6.40;4.47;;;;;;;;;;5068189;28;20139;-63
2022/01/25 05:08:54;;;;;;;6.68;4.90;;;;;;;;;;5066370;28;20060;-63
2022/01/25 05:14:09;;;;;;;6.40;4.78;;;;;;;;;;5070308;28;20055;-64
2022/01/25 05:16:46;;;;;;;6.93;4.68;;;;;;;;;;5068432;28;20494;-63
2022/01/25 05:24:49;;;;;;;9.80;4.90;;;;;;;;;;5031545;28;20069;-63
2022/01/25 05:27:17;;;;;;;7.65;4.85;;;;;;;;;;5015777;28;20131;-64
2022/01/25 05:29:43;;;;;;;7.10;4.90;;;;;;;;;;5046447;28;20044;-63
2022/01/25 05:32:09;;;;;;;8.43;5.57;;;;;;;;;;5070730;28;20131;-65
2022/01/25 05:34:36;;;;;;;16.77;5.43;;;;;;;;;;5069724;28;20057;-64
2022/01/25 05:37:03;;;;;;;10.77;4.90;;;;;;;;;;5071454;28;20080;-64
2022/01/25 05:39:34;;;;;;;9.25;4.95;;;;;;;;;;5069926;28;20049;-63
2022/01/25 05:42:16;;;;;;;11.93;5.15;;;;;;;;;;5070505;28;20048;-63
2022/01/25 05:47:13;;;;;;;8.85;5.05;;;;;;;;;;5071125;28;20049;-64
2022/01/25 05:49:41;;;;;;;12.38;5.63;;;;;;;;;;5070100;28;20075;-64
2022/01/25 05:52:08;;;;;;;7.18;5.13;;;;;;;;;;5070601;28;20055;-64
2022/01/25 05:54:35;;;;;;;9.02;4.97;;;;;;;;;;5070882;28;20127;-64
2022/01/25 05:57:01;;;;;;;7.40;5.05;;;;;;;;;;5070568;28;20044;-63
2022/01/25 05:59:27;;;;;;;9.88;4.65;;;;;;;;;;5057310;28;20479;-63
2022/01/25 06:01:53;;;;;;;7.07;5.10;;;;;;;;;;5050089;28;20491;-63
2022/01/25 06:04:21;;;;;;;6.72;4.70;;;;;;;;;;5050761;28;20542;-63
2022/01/25 06:06:47;;;;;;;7.78;4.90;;;;;;;;;;5056051;28;20056;-63
2022/01/25 06:09:13;;;;;;;8.77;4.90;;;;;;;;;;5069189;28;20049;-63
2022/01/25 06:11:39;;;;;;;7.10;4.78;;;;;;;;;;5068679;28;20181;-63
2022/01/25 06:14:05;;;;;;;11.60;5.25;;;;;;;;;;5069413;28;20091;-64
2022/01/25 06:16:31;;;;;;;6.40;5.03;;;;;;;;;;5058553;28;20098;-63
2022/01/25 06:18:58;;;;;;;7.65;4.75;;;;;;;;;;5050015;28;20056;-64
2022/01/25 06:21:24;;;;;;;6.95;4.90;;;;;;;;;;5070750;28;20055;-64
2022/01/25 06:23:50;;;;;;;8.00;4.85;;;;;;;;;;5052197;28;20044;-64
2022/01/25 06:26:16;;;;;;;7.57;5.03;;;;;;;;;;5068454;28;20054;-64
2022/01/25 06:28:42;;;;;;;7.38;4.93;;;;;;;;;;5049075;28;20487;-64
2022/01/25 06:31:08;;;;;;;12.10;5.47;;;;;;;;;;5048159;28;20572;-64
2022/01/25 06:33:35;;;;;;;7.82;5.28;;;;;;;;;;5048911;28;20045;-64
2022/01/25 06:36:01;;;;;;;9.77;4.78;;;;;;;;;;5063520;28;20045;-64
2022/01/25 06:38:28;;;;;;;7.63;4.60;;;;;;;;;;5051929;28;20063;-64
2022/01/25 06:40:54;;;;;;;7.97;5.20;;;;;;;;;;5068681;28;20101;-64
2022/01/25 06:43:20;;;;;;;8.65;4.70;;;;;;;;;;5070106;28;20213;-64
2022/01/25 06:45:55;;;;;;;6.90;4.63;;;;;;;;;;5068988;28;20378;-64
2022/01/25 06:48:21;;;;;;;6.88;4.80;;;;;;;;;;5052384;28;20426;-64
2022/01/25 06:50:47;;;;;;;6.65;5.18;;;;;;;;;;5054401;28;20045;-64
2022/01/25 06:53:13;;;;;;;7.25;5.30;;;;;;;;;;5049345;28;20421;-64
2022/01/25 06:55:40;;;;;;;6.05;4.43;;;;;;;;;;5048726;28;20045;-63
2022/01/25 06:58:06;;;;;;;7.30;4.70;;;;;;;;;;5031902;28;20135;-64
2022/01/25 07:00:32;;;;;;;6.32;4.72;;;;;;;;;;5049561;28;20491;-64
2022/01/25 07:02:59;;;;;;;7.88;4.97;;;;;;;;;;5061352;28;20265;-64
2022/01/25 07:05:25;;;;;;;6.03;4.57;;;;;;;;;;5069983;28;20130;-64
2022/01/25 07:07:52;;;;;;;8.43;4.80;;;;;;;;;;5069530;28;20044;-64
2022/01/25 07:10:18;;;;;;;7.25;5.50;;;;;;;;;;5069728;28;20180;-64
2022/01/25 07:12:44;;;;;;;6.60;5.03;;;;;;;;;;5067875;28;20401;-64
2022/01/25 07:15:11;;;;;;;6.68;4.70;;;;;;;;;;5069105;28;20058;-64
2022/01/25 07:17:37;;;;;;;7.38;4.85;;;;;;;;;;5065709;28;20123;-64
2022/01/25 07:20:06;;;;;;;7.35;4.78;;;;;;;;;;5066679;28;20040;-64
2022/01/25 07:22:32;;;;;;;6.83;5.07;;;;;;;;;;5068074;28;20072;-64
2022/01/25 07:24:58;;;;;;;7.68;4.80;;;;;;;;;;5066711;28;20048;-64
2022/01/25 07:27:24;;;;;;;7.63;4.60;;;;;;;;;;5067665;28;20051;-63
2022/01/25 07:29:51;;;;;;;7.43;5.00;;;;;;;;;;5066962;28;20092;-66
2022/01/25 07:32:17;;;;;;;7.78;5.32;;;;;;;;;;5050271;28;20127;-63
2022/01/25 07:34:43;;;;;;;8.50;4.80;;;;;;;;;;5068472;28;20502;-66
2022/01/25 07:37:09;;;;;;;6.63;4.93;;;;;;;;;;5068132;28;20076;-67
2022/01/25 07:39:35;;;;;;;11.38;4.95;;;;;;;;;;5067135;28;20095;-64
2022/01/25 07:42:01;;;;;;;9.05;4.57;;;;;;;;;;5068067;28;20140;-64
2022/01/25 07:44:31;;;;;;;7.88;4.78;;;;;;;;;;5068196;28;20071;-68
2022/01/25 07:46:57;;;;;;;7.68;4.88;;;;;;;;;;5067245;28;20048;-65
2022/01/25 07:49:24;;;;;;;11.10;4.38;;;;;;;;;;5066559;28;20140;-64
2022/01/25 07:51:51;;;;;;;8.52;4.90;;;;;;;;;;5050197;28;20126;-64
2022/01/25 07:54:17;;;;;;;6.20;4.63;;;;;;;;;;5050225;28;20544;-64
2022/01/25 07:56:43;;;;;;;9.68;4.65;;;;;;;;;;5068326;28;20050;-68
2022/01/25 07:59:09;;;;;;;7.65;4.90;;;;;;;;;;5067483;28;20391;-64
2022/01/25 08:01:35;;;;;;;8.63;4.80;;;;;;;;;;5050954;28;20557;-65
2022/01/25 08:04:01;;;;;;;8.75;5.07;;;;;;;;;;5066277;28;20037;-64
2022/01/25 08:06:28;;;;;;;5.85;4.70;;;;;;;;;;5068229;28;20131;-65
2022/01/25 08:08:54;;;;;;;8.90;4.78;;;;;;;;;;5068463;28;21156;-64
2022/01/25 08:11:20;;;;;;;7.20;5.00;;;;;;;;;;5066684;28;20067;-65
2022/01/25 08:13:49;;;;;;;7.15;4.72;;;;;;;;;;5067127;28;20048;-65
2022/01/25 08:16:16;;;;;;;7.60;4.97;;;;;;;;;;5061846;28;20080;-65
2022/01/25 08:18:42;;;;;;;6.55;4.80;;;;;;;;;;5050475;28;20366;-65
2022/01/25 08:21:08;;;;;;;9.73;4.97;;;;;;;;;;5065714;28;20062;-65
2022/01/25 08:23:34;;;;;;;7.57;4.47;;;;;;;;;;5066321;28;20101;-66
2022/01/25 08:26:00;;;;;;;10.38;5.28;;;;;;;;;;5049710;28;20456;-67
2022/01/25 08:28:26;;;;;;;7.50;4.78;;;;;;;;;;5050105;28;20425;-67
2022/01/25 08:30:52;;;;;;;9.57;5.18;;;;;;;;;;5068012;28;20063;-67
2022/01/25 08:33:18;;;;;;;8.30;5.20;;;;;;;;;;5066950;28;20052;-67
2022/01/25 08:35:44;;;;;;;9.68;5.28;;;;;;;;;;5067383;28;20049;-67
2022/01/25 08:38:10;;;;;;;9.35;5.05;;;;;;;;;;5068270;28;20411;-67
2022/01/25 08:40:36;;;;;;;8.10;5.50;;;;;;;;;;5055566;28;20473;-67
2022/01/25 08:43:03;;;;;;;7.25;5.03;;;;;;;;;;5048370;28;20041;-67
2022/01/25 08:45:29;;;;;;;9.35;5.10;;;;;;;;;;5046659;28;20041;-68
2022/01/25 08:47:55;;;;;;;7.28;5.25;;;;;;;;;;5051264;28;20053;-67
2022/01/25 08:50:21;;;;;;;8.20;4.90;;;;;;;;;;5058470;28;20051;-67
2022/01/25 08:52:47;;;;;;;5.90;4.80;;;;;;;;;;5071984;28;20187;-68
2022/01/25 08:55:14;;;;;;;6.18;4.88;;;;;;;;;;5070257;28;20044;-67
2022/01/25 08:57:40;;;;;;;8.40;5.43;;;;;;;;;;5071819;28;20497;-67
2022/01/25 09:00:07;;;;;;;7.28;5.05;;;;;;;;;;5053910;28;20127;-67
2022/01/25 09:02:33;;;;;;;7.05;4.75;;;;;;;;;;5055087;28;20051;-68
2022/01/25 09:05:00;;;;;;;6.22;4.78;;;;;;;;;;5051046;28;20131;-67
2022/01/25 09:07:26;;;;;;;6.43;4.63;;;;;;;;;;5051819;28;20045;-67
2022/01/25 09:09:52;;;;;;;6.53;4.78;;;;;;;;;;5050153;28;20052;-67
2022/01/25 09:12:18;;;;;;;7.95;4.70;;;;;;;;;;5052916;28;20102;-69
2022/01/25 09:14:44;;;;;;;6.97;5.10;;;;;;;;;;5053829;28;20048;-68
2022/01/25 09:17:10;;;;;;;6.70;5.20;;;;;;;;;;5069849;28;20062;-68
2022/01/25 09:19:38;;;;;;;6.18;4.80;;;;;;;;;;5069949;28;20068;-67
2022/01/25 09:22:05;;;;;;;6.68;5.10;;;;;;;;;;5050229;28;20437;-66
2022/01/25 09:24:31;;;;;;;6.18;4.68;;;;;;;;;;5051586;28;20417;-67
2022/01/25 09:26:57;;;;;;;9.43;4.78;;;;;;;;;;5049833;28;20053;-67
2022/01/25 09:29:23;;;;;;;7.20;4.80;;;;;;;;;;5051320;28;20407;-67
2022/01/25 09:31:49;;;;;;;9.90;5.22;;;;;;;;;;5067708;28;20509;-68
2022/01/25 09:34:15;;;;;;;6.25;4.63;;;;;;;;;;5071318;28;20279;-67
2022/01/25 09:36:42;;;;;;;5.60;4.40;;;;;;;;;;5070073;28;20124;-68
2022/01/25 09:39:08;;;;;;;6.90;4.75;;;;;;;;;;5050458;28;20526;-68
2022/01/25 09:41:34;;;;;;;7.25;5.30;;;;;;;;;;5062154;28;20047;-68
2022/01/25 09:44:02;;;;;;;7.03;5.32;;;;;;;;;;5057806;28;20055;-68
2022/01/25 09:46:28;;;;;;;8.77;5.15;;;;;;;;;;5064851;28;20052;-68
2022/01/25 09:48:54;;;;;;;6.97;4.78;;;;;;;;;;5049820;28;20080;-68
2022/01/25 09:51:21;;;;;;;7.15;5.47;;;;;;;;;;5051808;28;20450;-68
2022/01/25 09:53:47;;;;;;;6.13;4.80;;;;;;;;;;5052295;28;20056;-68
2022/01/25 09:56:13;;;;;;;7.10;5.10;;;;;;;;;;5070017;28;20097;-67
2022/01/25 09:58:39;;;;;;;8.07;4.90;;;;;;;;;;5065375;28;20048;-67
2022/01/25 10:01:05;;;;;;;8.65;5.85;;;;;;;;;;5059479;28;20044;-66
2022/01/25 10:03:38;;;;;;;6.78;4.85;;;;;;;;;;5054237;28;20124;-67
2022/01/25 10:06:10;;;;;;;6.35;4.60;;;;;;;;;;5049656;28;20098;-66
2022/01/25 10:08:37;;;;;;;6.22;4.82;;;;;;;;;;5051428;28;20053;-67
2022/01/25 10:11:05;;;;;;;7.45;4.80;;;;;;;;;;5059656;28;20097;-69
2022/01/25 10:13:36;;;;;;;6.82;5.13;;;;;;;;;;5052986;28;20097;-68
2022/01/25 10:16:06;;;;;;;6.55;5.30;;;;;;;;;;5053084;28;20087;-67
2022/01/25 10:18:51;;;;;;;6.78;5.13;;;;;;;;;;5071446;28;20071;-68
2022/01/25 10:21:27;;;;;;;7.43;4.90;;;;;;;;;;5070873;28;20075;-70
2022/01/25 10:24:01;;;;;;;8.57;5.15;;;;;;;;;;5070008;28;20045;-69
2022/01/25 10:26:30;;;;;;;7.03;4.85;;;;;;;;;;5068226;28;20053;-66
2022/01/25 10:28:56;;;;;;;7.23;5.17;;;;;;;;;;5052711;28;20077;-66
2022/01/25 10:31:33;;;;;;;8.05;5.50;;;;;;;;;;5068518;28;20118;-69
2022/01/25 10:33:59;;;;;;;5.97;4.68;;;;;;;;;;5069233;28;20051;-68
2022/01/25 10:36:25;;;;;;;7.38;4.75;;;;;;;;;;5052105;28;20134;-67
2022/01/25 10:38:54;;;;;;;7.80;5.07;;;;;;;;;;5047268;28;20052;-67
2022/01/25 10:41:22;;;;;;;7.30;5.05;;;;;;;;;;5062871;28;20769;-65
2022/01/25 10:43:49;;;;;;;7.75;5.53;;;;;;;;;;5068789;28;20079;-69
2022/01/25 10:46:25;;;;;;;7.13;4.90;;;;;;;;;;5068348;28;20110;-67
2022/01/25 10:48:53;;;;;;;6.47;4.82;;;;;;;;;;5065133;28;20451;-68
2022/01/25 10:51:21;;;;;;;7.03;5.38;;;;;;;;;;5064138;28;20374;-66
2022/01/25 10:54:17;;;;;;;7.15;4.95;;;;;;;;;;5054733;28;20052;-67
2022/01/25 10:56:46;;;;;;;8.30;4.88;;;;;;;;;;5045694;28;20107;-68
2022/01/25 10:59:14;;;;;;;7.65;4.93;;;;;;;;;;5050961;28;20565;-68
2022/01/25 11:01:45;;;;;;;6.78;4.72;;;;;;;;;;5069863;28;20429;-68
2022/01/25 11:04:14;;;;;;;9.23;5.57;;;;;;;;;;5051251;28;20128;-69
2022/01/25 11:06:41;;;;;;;6.70;5.20;;;;;;;;;;5068196;28;20048;-68
2022/01/25 11:09:09;;;;;;;7.18;4.65;;;;;;;;;;5068430;28;20106;-68
2022/01/25 11:11:40;;;;;;;7.15;5.18;;;;;;;;;;5067054;28;20114;-69
2022/01/25 11:16:53;;;;;;;6.40;4.90;;;;;;;;;;5069281;28;20076;-66
2022/01/25 11:19:20;;;;;;;7.25;5.07;;;;;;;;;;5054030;28;20045;-67
2022/01/25 11:21:47;;;;;;;7.32;4.65;;;;;;;;;;5055441;28;20049;-67
2022/01/25 11:24:14;;;;;;;7.25;5.10;;;;;;;;;;5069158;28;20127;-66
2022/01/25 11:26:44;;;;;;;7.43;5.28;;;;;;;;;;5067307;28;20048;-67
2022/01/25 11:29:10;;;;;;;7.68;4.70;;;;;;;;;;5067409;28;20067;-66
2022/01/25 11:31:38;;;;;;;7.50;5.50;;;;;;;;;;5068796;28;20059;-66
2022/01/25 11:34:06;;;;;;;7.18;4.97;;;;;;;;;;5067931;28;20056;-66
2022/01/25 11:36:32;;;;;;;7.68;5.18;;;;;;;;;;5068030;28;20474;-67
2022/01/25 11:38:58;;;;;;;8.48;4.75;;;;;;;;;;5068873;28;20067;-67
2022/01/25 11:41:26;;;;;;;8.35;5.35;;;;;;;;;;5052231;28;20087;-67
2022/01/25 11:44:07;;;;;;;7.32;5.07;;;;;;;;;;5048182;28;20096;-67
2022/01/25 11:46:33;;;;;;;7.63;5.22;;;;;;;;;;5047820;28;20049;-68
2022/01/25 11:49:07;;;;;;;7.07;4.93;;;;;;;;;;5049047;28;20395;-68
2022/01/25 11:51:34;;;;;;;7.10;5.25;;;;;;;;;;5048566;28;20355;-69
2022/01/25 11:54:02;;;;;;;8.15;5.72;;;;;;;;;;5048890;28;20416;-67
2022/01/25 11:56:28;;;;;;;8.20;5.35;;;;;;;;;;5049167;28;20124;-68
2022/01/25 11:58:55;;;;;;;7.75;5.05;;;;;;;;;;5048771;28;20132;-68
2022/01/25 12:01:23;;;;;;;6.88;4.95;;;;;;;;;;5069070;28;20131;-68
2022/01/25 12:03:53;;;;;;;8.15;5.30;;;;;;;;;;5066540;28;20466;-68
2022/01/25 12:06:44;;;;;;;7.30;4.97;;;;;;;;;;5068532;28;20117;-67
2022/01/25 12:11:47;;;;;;;7.40;5.10;;;;;;;;;;5064470;28;20363;-68
2022/01/25 12:14:14;;;;;;;7.60;4.97;;;;;;;;;;5067913;28;20128;-67
2022/01/25 12:16:44;;;;;;;9.00;5.43;;;;;;;;;;5050423;28;20048;-67
2022/01/25 12:19:12;;;;;;;7.95;5.05;;;;;;;;;;5055442;28;20171;-67
2022/01/25 12:21:48;;;;;;;7.00;5.13;;;;;;;;;;5065976;28;20036;-69
2022/01/25 12:24:17;;;;;;;8.40;5.50;;;;;;;;;;5019147;28;20057;-69
2022/01/25 12:27:17;;;;;;;7.45;5.43;;;;;;;;;;5057508;28;20264;-69
2022/01/25 12:29:45;;;;;;;8.85;5.07;;;;;;;;;;5056594;28;20352;-68
2022/01/25 12:32:15;;;;;;;10.75;5.47;;;;;;;;;;5057610;28;20056;-66
2022/01/25 12:34:58;;;;;;;9.32;5.18;;;;;;;;;;5053721;28;20053;-66
2022/01/25 12:37:42;;;;;;;7.13;4.97;;;;;;;;;;5057344;28;20043;-66
2022/01/25 12:40:28;;;;;;;7.50;4.85;;;;;;;;;;5052826;28;20045;-66
2022/01/25 12:43:06;;;;;;;7.68;5.22;;;;;;;;;;5058597;28;20510;-66
2022/01/25 12:45:37;;;;;;;13.45;4.82;;;;;;;;;;5055585;28;20040;-66
2022/01/25 12:48:09;;;;;;;8.48;4.47;;;;;;;;;;5052583;28;20040;-66
2022/01/25 12:50:37;;;;;;;7.63;4.53;;;;;;;;;;5054962;28;20040;-66
2022/01/25 12:53:04;;;;;;;8.35;5.00;;;;;;;;;;5058118;28;20045;-66
2022/01/25 12:55:50;;;;;;;8.18;4.88;;;;;;;;;;5044863;28;20040;-67
2022/01/25 12:58:16;;;;;;;7.13;4.82;;;;;;;;;;5051670;28;20056;-66
2022/01/25 13:00:44;;;;;;;6.18;4.68;;;;;;;;;;5055085;28;20406;-65
2022/01/25 13:03:18;;;;;;;6.68;4.43;;;;;;;;;;5059129;28;20028;-66
2022/01/25 13:05:46;;;;;;;6.53;4.60;;;;;;;;;;5054723;28;20354;-66
2022/01/25 13:08:35;;;;;;;6.30;5.00;;;;;;;;;;5054566;28;20045;-65
2022/01/25 13:11:01;;;;;;;;;;;;;;;;;;5052881;28;20064;-65
2022/01/25 13:13:30;;;;;;;6.25;4.65;;;;;;;;;;5062554;28;19936;-66
2022/01/25 13:15:57;;;;;;;7.07;4.97;;;;;;;;;;5062468;28;20405;-66
2022/01/25 13:18:25;;;;;;;6.32;4.72;;;;;;;;;;5052529;28;20053;-66
2022/01/25 13:20:59;;;;;;;6.35;5.13;;;;;;;;;;5054522;28;20048;-66
2022/01/25 13:23:25;;;;;;;8.57;4.95;;;;;;;;;;5056731;28;20377;-66
2022/01/25 13:25:55;;;;;;;9.65;4.75;;;;;;;;;;5056809;28;20063;-66
2022/01/25 13:31:18;;;;;;;6.30;4.65;;;;;;;;;;5046465;28;20045;-66
2022/01/25 13:33:44;;;;;;;6.40;5.15;;;;;;;;;;5053926;28;20135;-66
2022/01/25 13:36:14;;;;;;;7.90;4.93;;;;;;;;;;5059407;28;20579;-66
2022/01/25 13:38:40;;;;;;;;;;;;;;;;;;5059050;28;20051;-66
2022/01/25 13:41:17;;;;;;;6.97;4.95;;;;;;;;;;5046553;28;19932;-66
2022/01/25 13:46:37;;;;;;;7.22;4.93;;;;;;;;;;5054831;28;20049;-66
2022/01/25 13:49:13;;;;;;;6.75;5.32;;;;;;;;;;5053375;28;20040;-66
2022/01/25 13:51:41;;;;;;;7.20;4.65;;;;;;;;;;5059070;28;20524;-66
2022/01/25 13:54:08;;;;;;;7.25;4.85;;;;;;;;;;5063654;28;20053;-66
2022/01/25 13:56:34;;;;;;;6.43;4.90;;;;;;;;;;5057324;28;20406;-66
2022/01/25 13:59:02;;;;;;;9.35;4.53;;;;;;;;;;5056968;28;20401;-66
2022/01/25 14:01:30;;;;;;;10.77;5.43;;;;;;;;;;5057455;28;20052;-71
2022/01/25 14:04:14;;;;;;;6.97;5.22;;;;;;;;;;5036860;28;20036;-69
2022/01/25 14:06:41;;;;;;;7.80;4.90;;;;;;;;;;5051820;28;20102;-71
2022/01/25 14:09:13;;;;;;;8.98;5.18;;;;;;;;;;5044507;28;20242;-68
2022/01/25 14:25:28;;;;;;;7.22;5.07;;;;;;;;;;5055295;28;20048;-69
2022/01/25 14:27:56;;;;;;;7.18;4.85;;;;;;;;;;5056227;28;20118;-70
2022/01/25 14:30:22;;;;;;;6.25;4.97;;;;;;;;;;5058470;28;20064;-70
2022/01/25 14:33:12;;;;;;;6.85;5.25;;;;;;;;;;5047823;28;20106;-71
2022/01/25 14:35:38;;;;;;;;;;;;;;;;;;5059541;28;20080;-70
2022/01/25 14:38:04;;;;;;;8.25;5.35;;;;;;;;;;5051736;28;19968;-70
2022/01/25 14:40:30;;;;;;;6.80;5.07;;;;;;;;;;5048020;28;20127;-70
2022/01/25 14:42:56;;;;;;;8.10;4.72;;;;;;;;;;5052512;28;20120;-70
2022/01/25 14:45:24;;;;;;;6.60;4.72;;;;;;;;;;5058102;28;20141;-70
2022/01/25 14:47:51;;;;;;;7.82;5.05;;;;;;;;;;5050092;28;20036;-70
2022/01/25 14:50:32;;;;;;;7.40;5.18;;;;;;;;;;5054211;28;20052;-72
2022/01/25 14:53:07;;;;;;;8.73;4.95;;;;;;;;;;5053212;28;20127;-69
2022/01/25 14:55:34;;;;;;;6.40;4.65;;;;;;;;;;5049034;28;20560;-70
2022/01/25 14:59:22;;;;;;;6.53;5.03;;;;;;;;;;5046905;28;20033;-70
2022/01/25 15:00:51;;;;;;;6.82;4.35;;;;;;;;;;5051282;28;21324;-69
2022/01/25 15:03:17;;;;;;;7.30;5.22;;;;;;;;;;5058561;28;20453;-70
2022/01/25 15:05:45;;;;;;;6.82;5.18;;;;;;;;;;5050354;28;20442;-72
2022/01/25 15:08:13;;;;;;;6.35;5.10;;;;;;;;;;5033734;28;20388;-71
2022/01/25 15:10:44;;;;;;;6.32;4.78;;;;;;;;;;5055321;28;20396;-71
2022/01/25 15:13:10;;;;;;;7.00;5.15;;;;;;;;;;5056912;28;20055;-71
2022/01/25 15:15:54;;;;;;;7.72;5.03;;;;;;;;;;5045476;28;20048;-72
2022/01/25 15:18:22;;;;;;;7.97;5.32;;;;;;;;;;5014797;28;20461;-72
2022/01/25 15:20:48;;;;;;;6.28;4.80;;;;;;;;;;5056326;28;20037;-72
2022/01/25 15:23:14;;;;;;;6.40;4.57;;;;;;;;;;5054447;28;20040;-71
2022/01/25 15:25:40;;;;;;;6.82;4.72;;;;;;;;;;5056219;28;20459;-71
2022/01/25 15:28:08;;;;;;;6.60;4.97;;;;;;;;;;5054482;28;20434;-71
2022/01/25 15:30:34;;;;;;;6.70;4.60;;;;;;;;;;5046249;28;20114;-71
2022/01/25 15:33:00;;;;;;;7.20;5.20;;;;;;;;;;5056082;28;20048;-70
2022/01/25 15:35:27;;;;;;;6.45;4.65;;;;;;;;;;5055393;28;20055;-69
2022/01/25 15:37:59;;;;;;;6.15;4.60;;;;;;;;;;5059115;28;20044;-70
2022/01/25 15:40:26;;;;;;;6.40;5.05;;;;;;;;;;5058314;28;20063;-69
2022/01/25 15:42:52;;;;;;;8.90;5.45;;;;;;;;;;5057916;28;20040;-69
2022/01/25 15:45:28;;;;;;;7.10;4.90;;;;;;;;;;5048982;28;20037;-70
2022/01/25 15:47:54;;;;;;;6.80;4.70;;;;;;;;;;5040553;28;20495;-70
2022/01/25 15:50:23;;;;;;;6.70;4.85;;;;;;;;;;5056559;28;20102;-70
2022/01/25 15:52:49;;;;;;;5.90;4.63;;;;;;;;;;5056191;28;20102;-70
2022/01/25 15:55:16;;;;;;;6.90;4.93;;;;;;;;;;5055875;28;20627;-69
2022/01/25 15:57:42;;;;;;;6.72;4.72;;;;;;;;;;5055138;28;20045;-70
2022/01/25 16:00:08;;;;;;;8.45;5.53;;;;;;;;;;5055099;28;20040;-70
2022/01/25 16:02:34;;;;;;;7.60;4.70;;;;;;;;;;5055287;28;20064;-70
2022/01/25 16:05:00;;;;;;;6.55;4.55;;;;;;;;;;5054615;28;20506;-70
2022/01/25 16:07:27;;;;;;;6.07;4.53;;;;;;;;;;5055362;28;20052;-70
2022/01/25 16:09:56;;;;;;;5.63;4.45;;;;;;;;;;5053762;28;20128;-70
2022/01/25 16:12:22;;;;;;;7.43;4.72;;;;;;;;;;5046152;28;20052;-70
2022/01/25 16:14:49;;;;;;;7.32;5.38;;;;;;;;;;5053581;28;20097;-70
2022/01/25 16:17:15;;;;;;;7.70;5.03;;;;;;;;;;5055929;28;20181;-70
2022/01/25 16:19:41;;;;;;;7.75;5.00;;;;;;;;;;5054284;28;20080;-70
2022/01/25 16:22:07;;;;;;;7.78;4.85;;;;;;;;;;5056139;28;20603;-68
2022/01/25 16:24:34;;;;;;;6.57;4.90;;;;;;;;;;5056145;28;20521;-69
2022/01/25 16:27:00;;;;;;;7.50;5.05;;;;;;;;;;5045314;28;20117;-66
2022/01/25 16:29:26;;;;;;;7.65;5.00;;;;;;;;;;5056969;28;20472;-67
2022/01/25 16:31:57;;;;;;;8.38;4.82;;;;;;;;;;5043033;28;20193;-67
2022/01/25 16:34:23;;;;;;;8.90;4.85;;;;;;;;;;5054162;28;20623;-67
2022/01/25 16:36:49;;;;;;;8.98;4.78;;;;;;;;;;5055484;28;20051;-68
2022/01/25 16:39:15;;;;;;;7.10;4.53;;;;;;;;;;5046784;28;20084;-66
2022/01/25 16:41:44;;;;;;;8.57;5.07;;;;;;;;;;5061677;28;20441;-67
2022/01/25 16:44:10;;;;;;;12.35;4.60;;;;;;;;;;5044812;28;20462;-67
2022/01/25 16:46:37;;;;;;;7.90;4.95;;;;;;;;;;5054424;28;20363;-67
2022/01/25 16:49:04;;;;;;;7.78;4.72;;;;;;;;;;5053980;28;20123;-67
2022/01/25 16:51:31;;;;;;;9.50;4.60;;;;;;;;;;5042255;28;20092;-66
2022/01/25 16:53:57;;;;;;;6.15;4.53;;;;;;;;;;5056150;28;20045;-66
2022/01/25 16:56:23;;;;;;;7.00;4.38;;;;;;;;;;5061286;28;20410;-67
2022/01/25 16:58:56;;;;;;;6.95;4.97;;;;;;;;;;5054430;28;20052;-67
2022/01/25 17:01:23;;;;;;;7.50;4.93;;;;;;;;;;5052861;28;20118;-67